createdAt,value
2018-06-17T00:00:24.062Z,19.65
2018-06-17T00:02:52.461Z,19.64
2018-06-17T00:05:20.835Z,19.63
2018-06-17T00:07:49.241Z,19.63
2018-06-17T00:10:17.621Z,19.60
2018-06-17T00:12:46.027Z,19.57
2018-06-17T00:15:14.433Z,19.54
2018-06-17T00:17:42.834Z,19.52
2018-06-17T00:20:11.207Z,19.49
2018-06-17T00:22:39.595Z,19.47
2018-06-17T00:25:08.007Z,19.44
2018-06-17T00:27:36.391Z,19.41
2018-06-17T00:30:04.938Z,19.36
2018-06-17T00:32:33.451Z,19.32
2018-06-17T00:35:01.857Z,19.28
2018-06-17T00:37:30.232Z,19.23
2018-06-17T00:39:58.658Z,19.15
2018-06-17T00:42:27.040Z,19.07
2018-06-17T00:44:55.486Z,18.99
2018-06-17T00:47:23.858Z,18.96
2018-06-17T00:49:52.269Z,18.93
2018-06-17T00:52:20.650Z,18.93
2018-06-17T00:54:49.097Z,18.92
2018-06-17T00:57:28.911Z,18.90
2018-06-17T00:59:57.310Z,18.87
2018-06-17T01:02:25.688Z,18.85
2018-06-17T01:04:54.087Z,18.80
2018-06-17T01:07:22.467Z,18.75
2018-06-17T01:09:50.903Z,18.71
2018-06-17T01:12:19.282Z,18.66
2018-06-17T01:14:47.715Z,18.62
2018-06-17T01:17:16.099Z,18.59
2018-06-17T01:19:44.509Z,18.54
2018-06-17T01:22:12.890Z,18.50
2018-06-17T01:24:41.311Z,18.45
2018-06-17T01:27:09.706Z,18.39
2018-06-17T01:29:38.114Z,18.33
2018-06-17T01:32:06.327Z,18.28
2018-06-17T01:34:34.830Z,18.24
2018-06-17T01:37:03.238Z,18.20
2018-06-17T01:39:32.302Z,18.17
2018-06-17T01:42:00.669Z,18.15
2018-06-17T01:44:29.075Z,18.13
2018-06-17T01:46:57.630Z,18.13
2018-06-17T01:49:26.252Z,18.13
2018-06-17T01:51:54.640Z,18.13
2018-06-17T01:54:23.019Z,18.15
2018-06-17T01:56:51.430Z,18.17
2018-06-17T01:59:19.815Z,18.19
2018-06-17T02:01:48.220Z,18.20
2018-06-17T02:04:21.947Z,18.19
2018-06-17T02:06:55.687Z,18.18
2018-06-17T02:09:29.480Z,18.15
2018-06-17T02:12:08.158Z,18.13
2018-06-17T02:14:41.982Z,18.09
2018-06-17T02:17:10.382Z,18.04
2018-06-17T02:19:38.759Z,18.00
2018-06-17T02:22:07.264Z,17.96
2018-06-17T02:24:35.882Z,17.94
2018-06-17T02:27:04.291Z,17.90
2018-06-17T02:29:32.838Z,17.89
2018-06-17T02:32:01.247Z,17.89
2018-06-17T02:34:29.630Z,17.91
2018-06-17T02:36:58.038Z,17.96
2018-06-17T02:39:26.443Z,18.02
2018-06-17T02:41:54.864Z,18.10
2018-06-17T02:44:23.243Z,18.19
2018-06-17T02:46:57.107Z,18.27
2018-06-17T02:49:30.795Z,18.37
2018-06-17T02:52:04.516Z,18.46
2018-06-17T02:54:38.179Z,18.57
2018-06-17T02:57:06.619Z,18.66
2018-06-17T02:59:35.008Z,18.61
2018-06-17T03:02:03.419Z,18.84
2018-06-17T03:04:31.809Z,18.92
2018-06-17T03:07:00.212Z,18.99
2018-06-17T03:09:28.612Z,19.05
2018-06-17T03:11:57.232Z,19.11
2018-06-17T03:14:25.782Z,19.14
2018-06-17T03:16:54.291Z,19.19
2018-06-17T03:19:23.052Z,19.21
2018-06-17T03:21:51.495Z,19.26
2018-06-17T03:24:25.192Z,19.26
2018-06-17T03:26:58.924Z,19.28
2018-06-17T03:29:32.725Z,19.30
2018-06-17T03:32:06.444Z,19.32
2018-06-17T03:34:34.831Z,19.34
2018-06-17T03:37:03.219Z,19.38
2018-06-17T03:39:31.614Z,19.42
2018-06-17T03:42:00.004Z,19.47
2018-06-17T03:44:28.427Z,19.51
2018-06-17T03:46:56.802Z,19.59
2018-06-17T03:49:25.209Z,19.66
2018-06-17T03:51:53.595Z,19.81
2018-06-17T03:54:22.004Z,20.04
2018-06-17T03:56:50.398Z,20.34
2018-06-17T03:59:18.801Z,20.67
2018-06-17T04:01:47.181Z,21.04
2018-06-17T04:04:15.582Z,21.40
2018-06-17T04:06:43.975Z,21.77
2018-06-17T04:09:12.374Z,22.13
2018-06-17T04:11:40.760Z,22.46
2018-06-17T04:14:09.200Z,22.76
2018-06-17T04:16:37.577Z,23.05
2018-06-17T04:19:06.050Z,23.29
2018-06-17T04:21:34.424Z,23.54
2018-06-17T04:24:02.835Z,23.76
2018-06-17T04:26:31.227Z,23.94
2018-06-17T04:28:59.631Z,24.14
2018-06-17T04:31:28.078Z,24.22
2018-06-17T04:33:56.492Z,24.36
2018-06-17T04:36:24.880Z,24.54
2018-06-17T04:38:53.295Z,24.69
2018-06-17T04:41:21.678Z,24.83
2018-06-17T04:43:50.092Z,24.96
2018-06-17T04:46:18.481Z,25.04
2018-06-17T04:48:46.882Z,25.08
2018-06-17T04:51:15.268Z,25.04
2018-06-17T04:53:43.695Z,24.94
2018-06-17T04:56:12.087Z,24.85
2018-06-17T04:58:40.486Z,24.71
2018-06-17T05:01:08.895Z,24.55
2018-06-17T05:03:37.280Z,24.37
2018-06-17T05:06:05.918Z,24.18
2018-06-17T05:08:34.294Z,24.10
2018-06-17T05:11:02.703Z,24.14
2018-06-17T05:13:31.109Z,24.20
2018-06-17T05:15:59.515Z,24.31
2018-06-17T05:18:27.881Z,24.48
2018-06-17T05:20:56.399Z,24.56
2018-06-17T05:23:24.832Z,24.62
2018-06-17T05:25:53.230Z,24.67
2018-06-17T05:28:21.602Z,24.72
2018-06-17T05:30:50.017Z,24.76
2018-06-17T05:33:18.403Z,24.73
2018-06-17T05:35:46.824Z,24.69
2018-06-17T05:38:15.246Z,24.63
2018-06-17T05:40:43.654Z,24.50
2018-06-17T05:43:12.036Z,24.32
2018-06-17T05:45:40.438Z,24.16
2018-06-17T05:48:08.823Z,24.02
2018-06-17T05:50:37.224Z,23.87
2018-06-17T05:53:05.895Z,23.76
2018-06-17T05:55:34.374Z,23.64
2018-06-17T05:58:02.737Z,23.54
2018-06-17T06:00:31.150Z,23.44
2018-06-17T06:02:59.556Z,23.41
2018-06-17T06:05:27.996Z,23.39
2018-06-17T06:07:56.387Z,23.39
2018-06-17T06:10:24.832Z,23.35
2018-06-17T06:12:53.226Z,23.33
2018-06-17T06:15:21.682Z,23.32
2018-06-17T06:17:50.071Z,23.30
2018-06-17T06:20:18.468Z,23.27
2018-06-17T06:22:46.879Z,23.23
2018-06-17T06:25:15.301Z,23.19
2018-06-17T06:27:43.709Z,23.17
2018-06-17T06:30:12.087Z,23.25
2018-06-17T06:32:40.498Z,23.31
2018-06-17T06:35:08.866Z,23.41
2018-06-17T06:37:37.268Z,23.46
2018-06-17T06:40:05.642Z,23.52
2018-06-17T06:42:34.055Z,23.60
2018-06-17T06:45:02.504Z,23.68
2018-06-17T06:47:30.901Z,23.82
2018-06-17T06:49:59.343Z,23.91
2018-06-17T06:52:27.717Z,23.99
2018-06-17T06:54:56.106Z,24.08
2018-06-17T06:57:24.569Z,24.17
2018-06-17T06:59:52.979Z,24.30
2018-06-17T07:02:32.728Z,24.42
2018-06-17T07:05:12.434Z,24.55
2018-06-17T07:07:52.040Z,24.71
2018-06-17T07:10:24.188Z,24.83
2018-06-17T07:12:52.634Z,24.88
2018-06-17T07:15:32.816Z,24.95
2018-06-17T07:18:12.607Z,25.00
2018-06-17T07:20:41.247Z,25.11
2018-06-17T07:23:09.851Z,25.13
2018-06-17T07:26:54.705Z,25.16
2018-06-17T07:29:37.941Z,25.20
2018-06-17T07:32:06.331Z,25.26
2018-06-17T07:34:34.919Z,25.30
2018-06-17T07:37:03.629Z,25.43
2018-06-17T07:41:41.922Z,25.56
2018-06-17T07:44:10.326Z,25.76
2018-06-17T07:46:38.710Z,25.79
2018-06-17T07:49:28.733Z,25.75
2018-06-17T07:52:11.645Z,25.69
2018-06-17T07:54:41.027Z,25.58
2018-06-17T07:57:10.369Z,25.46
2018-06-17T07:59:38.763Z,25.37
2018-06-17T08:02:07.865Z,25.27
2018-06-17T08:04:36.427Z,25.17
2018-06-17T08:07:04.851Z,25.06
2018-06-17T08:09:33.246Z,24.92
2018-06-17T08:12:01.908Z,24.83
2018-06-17T08:14:30.334Z,24.79
2018-06-17T08:16:58.996Z,24.77
2018-06-17T08:19:28.550Z,24.72
2018-06-17T08:21:57.900Z,24.70
2018-06-17T08:24:26.647Z,24.66
2018-06-17T08:26:55.096Z,24.61
2018-06-17T08:29:23.737Z,24.58
2018-06-17T08:31:52.165Z,24.57
2018-06-17T08:34:20.547Z,24.63
2018-06-17T08:36:48.960Z,24.71
2018-06-17T08:39:18.556Z,24.74
2018-06-17T08:41:47.053Z,24.78
2018-06-17T08:44:16.233Z,24.90
2018-06-17T08:46:45.493Z,24.98
2018-06-17T08:49:14.405Z,24.98
2018-06-17T08:51:42.930Z,25.02
2018-06-17T08:54:11.369Z,25.02
2018-06-17T08:56:39.823Z,24.96
2018-06-17T08:59:08.207Z,24.86
2018-06-17T09:01:36.948Z,24.79
2018-06-17T09:04:05.336Z,24.74
2018-06-17T09:06:33.733Z,24.73
2018-06-17T09:09:02.183Z,24.86
2018-06-17T09:11:30.591Z,24.92
2018-06-17T09:13:58.995Z,24.95
2018-06-17T09:16:27.424Z,25.06
2018-06-17T09:18:55.853Z,25.24
2018-06-17T09:21:24.231Z,25.33
2018-06-17T09:23:52.635Z,25.50
2018-06-17T09:26:21.072Z,25.64
2018-06-17T09:28:49.491Z,25.69
2018-06-17T09:31:17.861Z,25.70
2018-06-17T09:33:46.268Z,25.76
2018-06-17T09:36:14.641Z,25.89
2018-06-17T09:38:43.042Z,26.04
2018-06-17T09:41:11.501Z,26.10
2018-06-17T09:43:39.905Z,26.17
2018-06-17T09:46:08.289Z,26.12
2018-06-17T09:48:36.683Z,26.11
2018-06-17T09:51:05.061Z,26.15
2018-06-17T09:53:33.467Z,26.22
2018-06-17T09:56:01.840Z,26.27
2018-06-17T09:58:30.263Z,26.40
2018-06-17T10:00:58.634Z,26.54
2018-06-17T10:03:27.031Z,26.55
2018-06-17T10:05:55.403Z,26.48
2018-06-17T10:08:23.802Z,26.39
2018-06-17T10:10:56.254Z,26.23
2018-06-17T10:13:25.995Z,26.07
2018-06-17T10:15:54.630Z,26.03
2018-06-17T10:18:23.769Z,25.97
2018-06-17T10:20:52.187Z,25.94
2018-06-17T10:23:20.847Z,26.00
2018-06-17T10:25:49.231Z,25.96
2018-06-17T10:28:18.119Z,25.95
2018-06-17T10:30:47.800Z,25.96
2018-06-17T10:33:16.211Z,26.01
2018-06-17T10:35:45.379Z,26.01
2018-06-17T10:38:13.815Z,26.02
2018-06-17T10:40:42.219Z,26.03
2018-06-17T10:43:12.894Z,26.07
2018-06-17T10:45:41.655Z,26.17
2018-06-17T10:48:10.497Z,26.18
2018-06-17T10:50:38.869Z,26.21
2018-06-17T10:53:07.728Z,26.26
2018-06-17T10:55:36.179Z,26.28
2018-06-17T10:58:04.559Z,26.32
2018-06-17T11:00:32.958Z,26.34
2018-06-17T11:03:01.340Z,26.35
2018-06-17T11:05:29.785Z,26.39
2018-06-17T11:07:58.146Z,26.45
2018-06-17T11:10:26.558Z,26.52
2018-06-17T11:12:54.939Z,26.58
2018-06-17T11:15:23.379Z,26.60
2018-06-17T11:17:51.758Z,26.60
2018-06-17T11:20:20.167Z,26.75
2018-06-17T11:22:48.542Z,26.78
2018-06-17T11:25:16.951Z,26.80
2018-06-17T11:27:45.339Z,26.78
2018-06-17T11:30:13.747Z,26.81
2018-06-17T11:32:42.151Z,26.90
2018-06-17T11:35:10.551Z,27.00
2018-06-17T11:37:38.934Z,27.01
2018-06-17T11:40:07.388Z,26.99
2018-06-17T11:42:35.774Z,26.90
2018-06-17T11:45:04.185Z,26.87
2018-06-17T11:47:32.567Z,26.85
2018-06-17T11:50:00.978Z,26.88
2018-06-17T11:52:29.354Z,26.90
2018-06-17T11:54:57.766Z,26.96
2018-06-17T11:57:26.151Z,27.09
2018-06-17T11:59:54.552Z,27.24
2018-06-17T12:02:22.953Z,27.25
2018-06-17T12:04:51.357Z,27.31
2018-06-17T12:07:19.770Z,27.34
2018-06-17T12:09:48.196Z,27.34
2018-06-17T12:12:16.576Z,27.43
2018-06-17T12:14:44.995Z,27.41
2018-06-17T12:17:13.467Z,27.39
2018-06-17T12:19:41.847Z,27.51
2018-06-17T12:22:10.253Z,27.56
2018-06-17T12:24:38.629Z,27.59
2018-06-17T12:27:07.040Z,27.69
2018-06-17T12:29:35.422Z,27.61
2018-06-17T12:32:03.827Z,27.63
2018-06-17T12:34:32.220Z,27.71
2018-06-17T12:37:00.636Z,27.73
2018-06-17T12:39:29.007Z,27.73
2018-06-17T12:41:57.407Z,27.76
2018-06-17T12:44:25.787Z,27.87
2018-06-17T12:46:54.212Z,27.87
2018-06-17T12:49:22.611Z,27.83
2018-06-17T12:51:51.026Z,27.89
2018-06-17T12:54:19.400Z,27.84
2018-06-17T12:56:47.798Z,27.83
2018-06-17T12:59:16.191Z,27.79
2018-06-17T13:01:44.590Z,27.74
2018-06-17T13:04:12.958Z,27.76
2018-06-17T13:06:41.363Z,27.71
2018-06-17T13:09:11.127Z,27.63
2018-06-17T13:11:39.527Z,27.58
2018-06-17T13:14:08.487Z,27.61
2018-06-17T13:16:36.883Z,27.60
2018-06-17T13:19:05.607Z,27.63
2018-06-17T13:21:34.007Z,27.62
2018-06-17T13:24:02.393Z,27.67
2018-06-17T13:26:30.855Z,27.72
2018-06-17T13:28:59.243Z,27.72
2018-06-17T13:31:27.606Z,27.69
2018-06-17T13:33:56.003Z,27.58
2018-06-17T13:36:24.375Z,27.45
2018-06-17T13:38:52.770Z,27.38
2018-06-17T13:41:21.146Z,27.37
2018-06-17T13:43:49.543Z,27.41
2018-06-17T13:46:17.948Z,27.44
2018-06-17T13:48:46.363Z,27.48
2018-06-17T13:51:14.747Z,27.51
2018-06-17T13:53:43.155Z,27.58
2018-06-17T13:56:11.531Z,27.71
2018-06-17T13:58:39.946Z,27.73
2018-06-17T14:01:08.320Z,27.74
2018-06-17T14:03:36.713Z,27.71
2018-06-17T14:06:05.094Z,27.67
2018-06-17T14:08:33.494Z,27.68
2018-06-17T14:11:01.926Z,27.68
2018-06-17T14:13:30.376Z,27.72
2018-06-17T14:15:58.748Z,27.73
2018-06-17T14:18:27.205Z,27.77
2018-06-17T14:20:55.588Z,27.86
2018-06-17T14:23:23.987Z,27.96
2018-06-17T14:25:52.367Z,27.95
2018-06-17T14:28:20.770Z,27.97
2018-06-17T14:30:49.147Z,28.06
2018-06-17T14:33:17.555Z,28.07
2018-06-17T14:35:45.924Z,27.98
2018-06-17T14:38:14.318Z,27.96
2018-06-17T14:40:48.175Z,27.89
2018-06-17T14:43:21.899Z,27.91
2018-06-17T14:45:55.705Z,27.96
2018-06-17T14:48:29.403Z,28.00
2018-06-17T14:51:03.106Z,28.06
2018-06-17T14:53:31.526Z,28.12
2018-06-17T14:55:59.899Z,28.10
2018-06-17T14:58:28.289Z,28.02
2018-06-17T15:00:56.662Z,28.00
2018-06-17T15:03:25.088Z,27.98
2018-06-17T15:05:53.838Z,27.91
2018-06-17T15:08:22.265Z,27.86
2018-06-17T15:10:50.630Z,27.80
2018-06-17T15:13:19.067Z,27.78
2018-06-17T15:15:47.533Z,27.80
2018-06-17T15:18:15.904Z,27.81
2018-06-17T15:20:44.343Z,27.78
2018-06-17T15:23:12.739Z,27.80
2018-06-17T15:25:41.137Z,27.78
2018-06-17T15:28:09.520Z,27.70
2018-06-17T15:30:37.963Z,27.66
2018-06-17T15:33:11.832Z,27.60
2018-06-17T15:35:45.694Z,27.54
2018-06-17T15:38:19.534Z,27.50
2018-06-17T15:40:53.232Z,27.43
2018-06-17T15:43:21.643Z,27.34
2018-06-17T15:45:50.046Z,27.27
2018-06-17T15:48:18.433Z,27.26
2018-06-17T15:50:46.911Z,27.28
2018-06-17T15:53:15.270Z,27.33
2018-06-17T15:55:43.674Z,27.32
2018-06-17T15:58:12.054Z,27.27
2018-06-17T16:00:40.472Z,27.21
2018-06-17T16:03:08.849Z,27.18
2018-06-17T16:05:37.251Z,27.19
2018-06-17T16:08:05.671Z,27.26
2018-06-17T16:10:34.076Z,27.25
2018-06-17T16:13:07.787Z,27.23
2018-06-17T16:15:41.515Z,27.15
2018-06-17T16:18:15.423Z,27.10
2018-06-17T16:20:49.144Z,27.05
2018-06-17T16:23:17.581Z,27.06
2018-06-17T16:25:45.959Z,27.10
2018-06-17T16:28:14.609Z,26.98
2018-06-17T16:30:43.070Z,27.15
2018-06-17T16:33:11.479Z,27.40
2018-06-17T16:35:39.919Z,27.35
2018-06-17T16:38:08.318Z,27.32
2018-06-17T16:40:36.694Z,27.36
2018-06-17T16:43:05.143Z,27.48
2018-06-17T16:45:33.510Z,27.73
2018-06-17T16:48:01.919Z,27.91
2018-06-17T16:50:30.297Z,28.26
2018-06-17T16:53:04.075Z,28.62
2018-06-17T16:55:37.915Z,28.88
2018-06-17T16:58:11.608Z,29.17
2018-06-17T17:00:39.988Z,29.43
2018-06-17T17:03:08.395Z,29.63
2018-06-17T17:05:36.776Z,29.69
2018-06-17T17:08:05.191Z,29.56
2018-06-17T17:10:34.025Z,29.35
2018-06-17T17:13:02.471Z,29.18
2018-06-17T17:15:30.852Z,28.97
2018-06-17T17:17:59.258Z,28.74
2018-06-17T17:20:27.639Z,28.45
2018-06-17T17:22:56.039Z,28.13
2018-06-17T17:25:24.423Z,27.76
2018-06-17T17:27:52.827Z,27.39
2018-06-17T17:30:21.213Z,27.07
2018-06-17T17:32:55.055Z,26.80
2018-06-17T17:35:28.855Z,26.59
2018-06-17T17:38:02.547Z,26.44
2018-06-17T17:40:36.230Z,26.33
2018-06-17T17:43:04.645Z,26.20
2018-06-17T17:45:35.011Z,26.16
2018-06-17T17:48:03.615Z,26.12
2018-06-17T17:50:31.995Z,26.13
2018-06-17T17:53:00.414Z,26.08
2018-06-17T17:55:28.777Z,26.01
2018-06-17T17:57:57.202Z,25.87
2018-06-17T18:00:25.584Z,25.72
2018-06-17T18:02:54.038Z,25.56
2018-06-17T18:05:22.396Z,25.40
2018-06-17T18:07:50.770Z,25.24
2018-06-17T18:10:19.158Z,25.09
2018-06-17T18:12:47.531Z,24.95
2018-06-17T18:15:15.955Z,24.81
2018-06-17T18:17:44.318Z,24.69
2018-06-17T18:20:12.715Z,24.46
2018-06-17T18:22:41.091Z,24.49
2018-06-17T18:25:14.761Z,24.41
2018-06-17T18:27:48.776Z,24.34
2018-06-17T18:30:22.472Z,24.25
2018-06-17T18:32:56.157Z,24.18
2018-06-17T18:35:30.009Z,24.08
2018-06-17T18:37:58.391Z,24.00
2018-06-17T18:40:26.800Z,23.91
2018-06-17T18:42:55.180Z,23.85
2018-06-17T18:45:23.579Z,23.77
2018-06-17T18:47:52.072Z,23.67
2018-06-17T18:50:20.462Z,23.53
2018-06-17T18:52:48.845Z,23.35
2018-06-17T18:55:17.299Z,23.18
2018-06-17T18:57:45.659Z,23.05
2018-06-17T19:00:14.067Z,22.93
2018-06-17T19:02:42.482Z,22.79
2018-06-17T19:05:10.882Z,22.67
2018-06-17T19:07:39.547Z,22.57
2018-06-17T19:10:13.375Z,22.46
2018-06-17T19:12:47.114Z,22.29
2018-06-17T19:15:20.887Z,22.12
2018-06-17T19:17:54.634Z,21.96
2018-06-17T19:20:23.042Z,21.87
2018-06-17T19:22:51.422Z,21.76
2018-06-17T19:25:19.831Z,21.67
2018-06-17T19:27:48.207Z,21.58
2018-06-17T19:30:16.611Z,21.48
2018-06-17T19:32:44.996Z,21.34
2018-06-17T19:35:13.394Z,21.23
2018-06-17T19:37:41.770Z,21.13
2018-06-17T19:40:10.171Z,21.05
2018-06-17T19:42:38.583Z,21.01
2018-06-17T19:45:06.966Z,20.97
2018-06-17T19:47:35.367Z,20.91
2018-06-17T19:50:09.117Z,20.88
2018-06-17T19:52:43.775Z,20.85
2018-06-17T19:55:17.516Z,20.81
2018-06-17T19:57:51.163Z,20.72
2018-06-17T20:00:25.262Z,20.66
2018-06-17T20:02:53.663Z,20.63
2018-06-17T20:05:22.047Z,20.57
2018-06-17T20:07:50.447Z,20.54
2018-06-17T20:10:18.819Z,20.52
2018-06-17T20:12:47.234Z,20.48
2018-06-17T20:15:15.633Z,20.47
2018-06-17T20:17:44.067Z,20.45
2018-06-17T20:20:12.446Z,20.39
2018-06-17T20:22:40.995Z,20.33
2018-06-17T20:25:09.338Z,20.27
2018-06-17T20:27:37.756Z,20.23
2018-06-17T20:30:06.950Z,20.20
2018-06-17T20:32:40.850Z,20.15
2018-06-17T20:35:14.670Z,20.13
2018-06-17T20:37:48.372Z,20.13
2018-06-17T20:40:22.186Z,20.10
2018-06-17T20:42:55.979Z,20.11
2018-06-17T20:45:24.355Z,20.08
2018-06-17T20:47:53.303Z,20.10
2018-06-17T20:50:22.043Z,20.06
2018-06-17T20:52:50.455Z,20.04
2018-06-17T20:55:19.114Z,20.02
2018-06-17T20:57:47.825Z,20.00
2018-06-17T21:00:16.195Z,19.98
2018-06-17T21:02:44.598Z,19.95
2018-06-17T21:05:13.178Z,19.94
2018-06-17T21:07:41.595Z,19.92
2018-06-17T21:10:09.972Z,19.90
2018-06-17T21:12:38.375Z,19.88
2018-06-17T21:15:12.168Z,19.87
2018-06-17T21:17:40.558Z,19.84
2018-06-17T21:20:14.219Z,19.81
2018-06-17T21:22:47.943Z,19.76
2018-06-17T21:25:21.587Z,19.71
2018-06-17T21:27:52.360Z,19.65
2018-06-17T21:30:21.003Z,19.61
2018-06-17T21:32:49.461Z,19.58
2018-06-17T21:35:18.191Z,19.55
2018-06-17T21:37:46.642Z,19.52
2018-06-17T21:40:15.057Z,19.51
2018-06-17T21:42:43.710Z,19.50
2018-06-17T21:45:12.523Z,19.49
2018-06-17T21:47:41.803Z,19.47
2018-06-17T21:50:10.209Z,19.42
2018-06-17T21:52:40.339Z,19.33
2018-06-17T21:55:08.752Z,19.27
2018-06-17T21:57:37.133Z,19.23
2018-06-17T22:00:07.153Z,19.21
2018-06-17T22:02:39.693Z,19.17
2018-06-17T22:05:08.103Z,19.15
2018-06-17T22:07:40.677Z,19.15
2018-06-17T22:10:14.430Z,19.12
2018-06-17T22:12:48.216Z,19.11
2018-06-17T22:15:21.998Z,19.11
2018-06-17T22:17:51.956Z,19.08
2018-06-17T22:20:20.555Z,19.04
2018-06-17T22:22:48.931Z,18.99
2018-06-17T22:25:17.723Z,18.96
2018-06-17T22:27:46.102Z,18.93
2018-06-17T22:30:14.498Z,18.90
2018-06-17T22:32:42.917Z,18.84
2018-06-17T22:35:11.320Z,18.75
2018-06-17T22:37:39.695Z,18.69
2018-06-17T22:40:08.119Z,18.63
2018-06-17T22:42:36.649Z,18.60
2018-06-17T22:45:05.303Z,18.59
2018-06-17T22:47:39.078Z,18.55
2018-06-17T22:50:07.973Z,18.55
2018-06-17T22:52:47.787Z,18.54
2018-06-17T22:55:16.174Z,18.54
2018-06-17T22:58:50.859Z,18.53
2018-06-17T23:01:24.713Z,18.49
2018-06-17T23:03:58.338Z,18.48
2018-06-17T23:06:32.200Z,18.46
2018-06-17T23:09:06.024Z,18.46
2018-06-17T23:11:34.735Z,18.42
2018-06-17T23:14:03.134Z,18.39
2018-06-17T23:16:31.532Z,18.34
2018-06-17T23:18:59.900Z,18.33
2018-06-17T23:21:28.288Z,18.32
2018-06-17T23:23:56.658Z,18.31
2018-06-17T23:26:25.054Z,18.28
2018-06-17T23:28:53.435Z,18.25
2018-06-17T23:31:21.843Z,18.23
2018-06-17T23:33:50.218Z,18.19
2018-06-17T23:36:18.605Z,18.18
2018-06-17T23:38:46.970Z,18.14
2018-06-17T23:41:16.573Z,18.12
2018-06-17T23:43:46.516Z,18.09
2018-06-17T23:46:20.406Z,18.06
2018-06-17T23:48:54.174Z,18.04
2018-06-17T23:51:28.015Z,18.02
2018-06-17T23:54:01.716Z,17.99
2018-06-17T23:56:30.135Z,17.96
2018-06-17T23:58:58.506Z,17.92
